createdAt,value
2023-05-24T00:02:27.075Z,2.83
2023-05-24T00:04:54.357Z,5.25
2023-05-24T00:07:21.681Z,1.90
2023-05-24T00:09:49.089Z,3.28
2023-05-24T00:12:16.768Z,2.20
2023-05-24T00:14:43.731Z,2.05
2023-05-24T00:17:10.763Z,3.13
2023-05-24T00:19:38.483Z,2.38
2023-05-24T00:22:05.824Z,1.73
2023-05-24T00:24:32.903Z,3.78
2023-05-24T00:26:59.868Z,2.45
2023-05-24T00:29:26.860Z,2.28
2023-05-24T00:31:53.886Z,2.35
2023-05-24T00:34:21.032Z,2.25
2023-05-24T00:36:48.053Z,2.15
2023-05-24T00:39:15.117Z,3.35
2023-05-24T00:41:42.127Z,3.00
2023-05-24T00:44:11.090Z,3.40
2023-05-24T00:46:38.974Z,3.63
2023-05-24T00:49:06.192Z,3.72
2023-05-24T00:51:34.174Z,2.00
2023-05-24T00:54:01.324Z,2.92
2023-05-24T00:56:28.813Z,2.45
2023-05-24T00:58:56.497Z,3.92
2023-05-24T01:01:31.161Z,3.65
2023-05-24T01:04:00.597Z,5.53
2023-05-24T01:06:29.223Z,5.55
2023-05-24T01:09:10.242Z,5.32
2023-05-24T01:12:00.933Z,5.70
2023-05-24T01:14:53.654Z,4.68
2023-05-24T01:17:46.651Z,4.47
2023-05-24T01:20:15.162Z,9.27
2023-05-24T01:22:51.154Z,6.20
2023-05-24T01:25:42.014Z,6.00
2023-05-24T01:28:10.877Z,6.75
2023-05-24T01:30:42.629Z,4.68
2023-05-24T01:33:10.001Z,5.30
2023-05-24T01:35:40.685Z,5.63
2023-05-24T01:38:07.912Z,2.55
2023-05-24T01:40:36.022Z,5.38
2023-05-24T01:43:41.305Z,5.32
2023-05-24T01:46:36.602Z,3.42
2023-05-24T01:49:29.706Z,3.17
2023-05-24T01:52:05.718Z,5.85
2023-05-24T01:54:38.262Z,6.35
2023-05-24T01:57:09.396Z,6.80
2023-05-24T01:59:38.306Z,6.18
2023-05-24T02:02:05.911Z,8.07
2023-05-24T02:04:33.474Z,3.30
2023-05-24T02:07:00.589Z,5.13
2023-05-24T02:09:27.577Z,5.00
2023-05-24T02:11:54.595Z,6.85
2023-05-24T02:14:21.597Z,3.25
2023-05-24T02:16:50.890Z,5.93
2023-05-24T02:19:18.175Z,7.18
2023-05-24T02:21:45.189Z,6.57
2023-05-24T02:24:12.664Z,5.40
2023-05-24T02:26:40.031Z,7.35
2023-05-24T02:29:07.197Z,7.45
2023-05-24T02:31:34.234Z,7.47
2023-05-24T02:34:01.343Z,10.10
2023-05-24T02:36:28.598Z,13.05
2023-05-24T02:38:57.000Z,9.90
2023-05-24T02:41:24.487Z,7.30
2023-05-24T02:43:51.505Z,8.38
2023-05-24T02:46:18.538Z,3.42
2023-05-24T02:48:46.138Z,6.90
2023-05-24T02:51:13.090Z,8.50
2023-05-24T02:53:40.083Z,5.60
2023-05-24T02:56:08.038Z,5.25
2023-05-24T02:58:35.264Z,8.15
2023-05-24T03:01:02.274Z,6.60
2023-05-24T03:03:29.370Z,7.65
2023-05-24T03:05:56.548Z,5.22
2023-05-24T03:08:24.054Z,6.25
2023-05-24T03:10:50.997Z,7.10
2023-05-24T03:13:17.922Z,8.90
2023-05-24T03:15:45.414Z,17.90
2023-05-24T03:18:12.678Z,7.65
2023-05-24T03:20:39.731Z,4.90
2023-05-24T03:23:06.719Z,8.25
2023-05-24T03:25:33.867Z,7.53
2023-05-24T03:28:02.721Z,7.53
2023-05-24T03:30:30.140Z,6.50
2023-05-24T03:32:57.258Z,5.55
2023-05-24T03:35:24.982Z,4.18
2023-05-24T03:37:51.984Z,10.43
2023-05-24T03:40:19.263Z,10.07
2023-05-24T03:42:46.455Z,6.10
2023-05-24T03:45:16.073Z,7.78
2023-05-24T03:47:46.542Z,9.00
2023-05-24T03:50:14.632Z,11.52
2023-05-24T03:52:43.171Z,8.77
2023-05-24T03:55:10.232Z,8.40
2023-05-24T03:57:37.177Z,9.90
2023-05-24T04:00:07.263Z,6.88
2023-05-24T04:02:34.328Z,8.13
2023-05-24T04:05:01.935Z,11.50
2023-05-24T04:07:29.107Z,6.18
2023-05-24T04:09:56.088Z,6.65
2023-05-24T04:12:23.276Z,5.47
2023-05-24T04:14:51.958Z,6.53
2023-05-24T04:17:18.995Z,7.03
2023-05-24T04:19:47.226Z,8.02
2023-05-24T04:22:14.152Z,12.32
2023-05-24T04:24:41.394Z,8.98
2023-05-24T04:27:10.215Z,9.50
2023-05-24T04:29:40.186Z,7.47
2023-05-24T04:32:07.608Z,7.63
2023-05-24T04:34:35.842Z,11.43
2023-05-24T04:37:03.728Z,11.25
2023-05-24T04:39:31.414Z,7.93
2023-05-24T04:41:59.262Z,10.45
2023-05-24T04:44:26.331Z,8.98
2023-05-24T04:46:54.487Z,15.50
2023-05-24T04:49:22.790Z,7.13
2023-05-24T04:51:49.829Z,11.65
2023-05-24T04:54:18.534Z,13.00
2023-05-24T04:56:46.011Z,14.50
2023-05-24T04:59:13.059Z,15.05
2023-05-24T05:01:40.139Z,9.68
2023-05-24T05:04:08.089Z,7.45
2023-05-24T05:06:38.810Z,10.23
2023-05-24T05:09:09.692Z,11.82
2023-05-24T05:11:37.431Z,10.80
2023-05-24T05:14:04.787Z,8.82
2023-05-24T05:16:32.068Z,12.20
2023-05-24T05:18:59.290Z,14.00
2023-05-24T05:21:26.240Z,13.32
2023-05-24T05:23:54.868Z,14.25
2023-05-24T05:26:22.417Z,10.32
2023-05-24T05:28:49.394Z,12.18
2023-05-24T05:31:16.454Z,10.57
2023-05-24T05:33:43.421Z,12.35
2023-05-24T05:36:10.600Z,9.15
2023-05-24T05:38:37.870Z,8.10
2023-05-24T05:41:04.862Z,8.15
2023-05-24T05:43:32.071Z,11.43
2023-05-24T05:46:00.799Z,12.27
2023-05-24T05:48:28.026Z,9.75
2023-05-24T05:50:54.999Z,10.20
2023-05-24T05:53:21.994Z,11.57
2023-05-24T05:55:49.008Z,10.07
2023-05-24T05:58:16.374Z,11.98
2023-05-24T06:00:43.503Z,13.85
2023-05-24T06:03:11.063Z,13.90
2023-05-24T06:05:38.251Z,9.95
2023-05-24T06:08:05.503Z,8.50
2023-05-24T06:10:32.441Z,13.15
2023-05-24T06:13:01.890Z,9.30
2023-05-24T06:15:29.579Z,17.77
2023-05-24T06:17:56.597Z,9.02
2023-05-24T06:20:23.789Z,12.68
2023-05-24T06:22:50.935Z,9.40
2023-05-24T06:25:21.100Z,7.90
2023-05-24T06:27:48.140Z,17.02
2023-05-24T06:30:15.448Z,9.90
2023-05-24T06:32:42.467Z,12.88
2023-05-24T06:35:10.164Z,11.18
2023-05-24T06:37:38.612Z,12.35
2023-05-24T06:40:08.884Z,8.10
2023-05-24T06:42:37.414Z,11.52
2023-05-24T06:45:04.681Z,7.20
2023-05-24T06:47:32.163Z,7.50
2023-05-24T06:49:59.180Z,14.23
2023-05-24T06:52:26.204Z,9.57
2023-05-24T06:54:53.660Z,12.20
2023-05-24T06:57:20.873Z,14.13
2023-05-24T06:59:48.101Z,8.15
2023-05-24T07:02:15.366Z,12.18
2023-05-24T07:04:42.510Z,7.40
2023-05-24T07:07:12.848Z,9.27
2023-05-24T07:09:41.933Z,9.98
2023-05-24T07:12:09.419Z,11.98
2023-05-24T07:14:36.968Z,9.95
2023-05-24T07:17:04.825Z,5.55
2023-05-24T07:19:33.872Z,8.32
2023-05-24T07:22:00.862Z,6.88
2023-05-24T07:24:27.999Z,8.18
2023-05-24T07:26:57.030Z,11.80
2023-05-24T07:29:24.589Z,5.60
2023-05-24T07:31:52.203Z,4.72
2023-05-24T07:34:21.780Z,7.85
2023-05-24T07:36:49.629Z,8.02
2023-05-24T07:39:16.891Z,7.15
2023-05-24T07:41:44.050Z,7.20
2023-05-24T07:44:12.262Z,9.90
2023-05-24T07:46:39.704Z,8.00
2023-05-24T07:49:07.270Z,7.18
2023-05-24T07:51:34.387Z,7.78
2023-05-24T07:54:01.660Z,6.80
2023-05-24T07:56:28.625Z,6.65
2023-05-24T07:59:00.783Z,9.38
2023-05-24T08:01:29.164Z,7.18
2023-05-24T08:03:56.669Z,6.90
2023-05-24T08:06:24.361Z,4.78
2023-05-24T08:08:51.335Z,6.70
2023-05-24T08:11:18.287Z,6.15
2023-05-24T08:13:45.671Z,6.22
2023-05-24T08:16:12.874Z,4.38
2023-05-24T08:18:40.391Z,5.07
2023-05-24T08:21:09.050Z,5.15
2023-05-24T08:23:36.452Z,4.28
2023-05-24T08:26:03.484Z,5.70
2023-05-24T08:28:30.597Z,4.15
2023-05-24T08:30:58.798Z,5.15
2023-05-24T08:33:26.106Z,4.65
2023-05-24T08:35:53.333Z,4.38
2023-05-24T08:38:20.293Z,3.97
2023-05-24T08:40:48.313Z,3.53
2023-05-24T08:43:15.683Z,3.45
2023-05-24T08:45:43.512Z,5.28
2023-05-24T08:48:11.180Z,5.25
2023-05-24T08:50:38.432Z,2.60
2023-05-24T08:53:07.397Z,3.33
2023-05-24T08:55:35.359Z,3.00
2023-05-24T08:58:02.404Z,2.40
2023-05-24T09:00:29.568Z,3.42
2023-05-24T09:02:58.985Z,4.35
2023-05-24T09:05:26.490Z,2.67
2023-05-24T09:07:55.998Z,2.53
2023-05-24T09:10:24.095Z,1.77
2023-05-24T09:12:58.555Z,3.03
2023-05-24T09:15:26.212Z,2.42
2023-05-24T09:17:53.789Z,2.42
2023-05-24T09:20:22.140Z,3.38
2023-05-24T09:22:52.292Z,2.65
2023-05-24T09:25:23.613Z,2.05
2023-05-24T09:27:52.914Z,2.65
2023-05-24T09:30:21.955Z,1.55
2023-05-24T09:33:00.912Z,2.55
2023-05-24T09:35:28.769Z,1.27
2023-05-24T09:38:02.277Z,1.20
2023-05-24T09:40:30.289Z,2.92
2023-05-24T09:43:09.239Z,2.53
2023-05-24T09:45:47.084Z,1.30
2023-05-24T09:48:16.690Z,1.33
2023-05-24T09:50:47.578Z,2.92
2023-05-24T09:53:19.065Z,2.60
2023-05-24T09:55:46.425Z,1.75
2023-05-24T09:58:13.979Z,1.15
2023-05-24T10:06:27.979Z,1.40
2023-05-24T10:14:27.111Z,3.25
2023-05-24T10:16:54.462Z,2.63
2023-05-24T10:19:22.023Z,1.92
2023-05-24T10:21:49.977Z,1.83
2023-05-24T10:24:22.247Z,2.67
2023-05-24T10:26:50.801Z,2.00
2023-05-24T10:29:42.139Z,1.27
2023-05-24T10:32:09.844Z,2.90
2023-05-24T10:56:13.837Z,0.70
2023-05-24T10:58:58.044Z,1.08
2023-05-24T11:01:33.942Z,0.80
2023-05-24T11:04:12.948Z,0.95
2023-05-24T11:06:49.840Z,1.13
2023-05-24T11:09:22.591Z,1.27
2023-05-24T11:12:00.458Z,1.73
2023-05-24T11:14:29.352Z,1.67
2023-05-24T11:17:00.441Z,1.23
2023-05-24T11:19:39.369Z,1.02
2023-05-24T11:22:09.809Z,0.77
2023-05-24T11:24:37.607Z,0.55
2023-05-24T11:27:06.252Z,0.60
2023-05-24T11:29:34.881Z,0.85
2023-05-24T11:32:08.133Z,0.70
2023-05-24T11:34:35.728Z,0.80
2023-05-24T11:37:03.515Z,0.80
2023-05-24T11:39:35.839Z,1.55
2023-05-24T11:42:07.132Z,1.85
2023-05-24T11:44:38.255Z,1.92
2023-05-24T11:47:07.723Z,0.95
2023-05-24T11:49:34.974Z,1.88
2023-05-24T11:52:02.869Z,1.05
2023-05-24T11:54:32.865Z,1.42
2023-05-24T11:57:00.211Z,0.85
2023-05-24T11:59:29.340Z,1.08
2023-05-24T12:02:00.768Z,0.52
2023-05-24T12:04:29.615Z,0.82
2023-05-24T12:06:57.098Z,0.88
2023-05-24T12:09:24.906Z,0.68
2023-05-24T12:11:53.349Z,1.08
2023-05-24T12:14:25.507Z,0.90
2023-05-24T12:16:58.548Z,0.63
2023-05-24T12:19:33.524Z,0.57
2023-05-24T12:22:05.398Z,0.70
2023-05-24T12:24:32.954Z,0.77
2023-05-24T12:27:08.110Z,0.70
2023-05-24T12:29:37.018Z,0.73
2023-05-24T12:32:04.743Z,0.70
2023-05-24T12:34:32.611Z,0.88
2023-05-24T12:37:00.342Z,0.80
2023-05-24T12:39:32.384Z,0.88
2023-05-24T12:42:01.930Z,0.60
2023-05-24T12:44:36.997Z,0.85
2023-05-24T12:47:08.868Z,0.60
2023-05-24T12:49:36.480Z,0.70
2023-05-24T12:52:03.798Z,0.82
2023-05-24T12:54:31.324Z,1.17
2023-05-24T12:57:03.455Z,0.80
2023-05-24T12:59:31.061Z,0.77
2023-05-24T13:01:58.166Z,1.42
2023-05-24T13:04:28.403Z,0.95
2023-05-24T13:06:55.913Z,0.60
2023-05-24T13:09:24.090Z,0.55
2023-05-24T13:11:52.751Z,0.70
2023-05-24T13:14:21.563Z,0.60
2023-05-24T13:16:49.588Z,0.60
2023-05-24T13:19:17.473Z,0.57
2023-05-24T13:21:45.074Z,0.60
2023-05-24T13:24:14.982Z,1.40
2023-05-24T13:26:42.129Z,1.58
2023-05-24T13:31:41.241Z,0.70
2023-05-24T13:34:11.194Z,1.05
2023-05-24T13:36:38.500Z,0.90
2023-05-24T13:41:38.930Z,0.50
2023-05-24T13:44:07.412Z,1.08
2023-05-24T13:46:34.662Z,0.60
2023-05-24T13:49:02.326Z,0.63
2023-05-24T13:51:29.580Z,0.80
2023-05-24T13:53:56.899Z,0.90
2023-05-24T13:56:25.152Z,1.25
2023-05-24T13:58:53.736Z,2.85
2023-05-24T14:01:20.989Z,2.90
2023-05-24T14:03:48.155Z,1.83
2023-05-24T14:06:15.353Z,3.05
2023-05-24T14:08:42.717Z,2.70
2023-05-24T14:11:10.988Z,1.45
2023-05-24T14:16:09.169Z,1.40
2023-05-24T14:18:36.607Z,0.90
2023-05-24T14:21:03.967Z,1.65
2023-05-24T14:23:33.113Z,1.08
2023-05-24T14:26:00.568Z,3.20
2023-05-24T14:28:27.919Z,0.93
2023-05-24T14:30:54.848Z,1.40
2023-05-24T14:33:21.822Z,1.77
2023-05-24T14:35:50.389Z,1.63
2023-05-24T14:38:17.861Z,1.90
2023-05-24T14:40:47.581Z,1.95
2023-05-24T14:43:14.834Z,2.05
2023-05-24T14:45:42.758Z,1.67
2023-05-24T14:48:11.880Z,1.52
2023-05-24T14:50:40.686Z,2.20
2023-05-24T14:53:12.155Z,1.50
2023-05-24T14:55:44.272Z,3.00
2023-05-24T14:58:12.293Z,2.83
2023-05-24T15:00:40.473Z,2.72
2023-05-24T15:03:13.124Z,2.63
2023-05-24T15:05:41.761Z,4.20
2023-05-24T15:08:10.976Z,3.70
2023-05-24T15:10:39.385Z,4.03
2023-05-24T15:13:06.799Z,5.28
2023-05-24T15:15:33.864Z,4.18
2023-05-24T15:18:00.979Z,7.15
2023-05-24T15:20:28.195Z,3.67
2023-05-24T15:22:55.275Z,3.50
2023-05-24T15:25:23.553Z,5.15
2023-05-24T15:27:50.532Z,3.17
2023-05-24T15:30:19.760Z,3.80
2023-05-24T15:32:47.679Z,5.57
2023-05-24T15:35:15.046Z,3.03
2023-05-24T15:37:43.023Z,4.18
2023-05-24T15:40:10.956Z,5.20
2023-05-24T15:42:38.597Z,5.40
2023-05-24T15:45:07.412Z,6.72
2023-05-24T15:47:40.017Z,3.47
2023-05-24T15:50:08.672Z,4.25
2023-05-24T15:52:36.219Z,3.08
2023-05-24T15:55:03.911Z,3.67
2023-05-24T15:57:31.456Z,3.63
2023-05-24T15:59:58.462Z,2.72
2023-05-24T16:02:25.852Z,7.93
2023-05-24T16:04:53.213Z,5.22
2023-05-24T16:07:20.738Z,4.60
2023-05-24T16:09:50.223Z,4.75
2023-05-24T16:12:20.583Z,3.03
2023-05-24T16:14:47.582Z,4.93
2023-05-24T16:17:18.149Z,5.03
2023-05-24T16:19:49.765Z,4.97
2023-05-24T16:22:17.073Z,5.72
2023-05-24T16:24:44.788Z,6.05
2023-05-24T16:27:11.998Z,6.88
2023-05-24T16:29:39.590Z,7.47
2023-05-24T16:32:07.756Z,8.95
2023-05-24T16:34:51.956Z,6.90
2023-05-24T16:37:22.055Z,9.48
2023-05-24T16:39:49.041Z,10.73
2023-05-24T16:42:16.116Z,8.57
2023-05-24T16:44:43.404Z,12.02
2023-05-24T16:47:10.941Z,9.75
2023-05-24T16:49:38.113Z,14.18
2023-05-24T16:52:05.414Z,12.15
2023-05-24T16:54:32.605Z,17.88
2023-05-24T16:56:59.702Z,10.02
2023-05-24T16:59:26.848Z,11.85
2023-05-24T17:01:54.200Z,9.20
2023-05-24T17:04:21.349Z,9.10
2023-05-24T17:06:48.494Z,11.43
2023-05-24T17:09:16.203Z,9.02
2023-05-24T17:11:43.211Z,14.55
2023-05-24T17:14:10.229Z,11.77
2023-05-24T17:16:37.446Z,6.22
2023-05-24T17:19:04.578Z,9.73
2023-05-24T17:21:31.599Z,11.48
2023-05-24T17:24:00.629Z,10.20
2023-05-24T17:26:27.932Z,7.85
2023-05-24T17:28:55.073Z,8.73
2023-05-24T17:31:22.732Z,8.30
2023-05-24T17:33:49.705Z,11.30
2023-05-24T17:36:16.749Z,7.97
2023-05-24T17:38:44.003Z,13.88
2023-05-24T17:41:11.078Z,7.72
2023-05-24T17:43:40.229Z,7.68
2023-05-24T17:46:07.783Z,8.80
2023-05-24T17:48:39.604Z,12.75
2023-05-24T17:51:10.879Z,13.50
2023-05-24T17:53:38.544Z,11.00
2023-05-24T17:56:06.240Z,9.38
2023-05-24T17:58:36.837Z,10.55
2023-05-24T18:01:05.535Z,8.10
2023-05-24T18:03:38.420Z,9.93
2023-05-24T18:06:07.415Z,7.75
2023-05-24T18:08:38.031Z,11.98
2023-05-24T18:11:08.798Z,9.23
2023-05-24T18:13:37.604Z,9.68
2023-05-24T18:16:04.910Z,9.45
2023-05-24T18:18:32.968Z,10.27
2023-05-24T18:21:00.055Z,9.68
2023-05-24T18:23:27.089Z,7.65
2023-05-24T18:26:00.372Z,11.77
2023-05-24T18:28:28.596Z,8.18
2023-05-24T18:30:55.701Z,8.60
2023-05-24T18:33:22.994Z,9.23
2023-05-24T18:35:50.600Z,14.23
2023-05-24T18:38:17.809Z,12.63
2023-05-24T18:40:44.797Z,12.18
2023-05-24T18:43:11.796Z,9.18
2023-05-24T18:45:38.888Z,16.10
2023-05-24T18:48:06.445Z,16.92
2023-05-24T18:50:33.726Z,12.05
2023-05-24T18:53:00.750Z,8.57
2023-05-24T18:55:28.663Z,13.07
2023-05-24T18:57:56.124Z,15.60
2023-05-24T19:00:24.621Z,11.98
2023-05-24T19:02:52.105Z,9.48
2023-05-24T19:05:20.172Z,9.15
2023-05-24T19:07:47.453Z,9.82
2023-05-24T19:10:14.447Z,11.60
2023-05-24T19:12:41.691Z,9.15
2023-05-24T19:15:09.133Z,7.93
2023-05-24T19:17:36.295Z,7.60
2023-05-24T19:20:04.052Z,11.38
2023-05-24T19:22:31.041Z,9.70
2023-05-24T19:24:58.218Z,13.52
2023-05-24T19:27:25.239Z,10.15
2023-05-24T19:29:52.290Z,7.30
2023-05-24T19:32:20.592Z,12.05
2023-05-24T19:34:47.698Z,4.45
2023-05-24T19:37:15.868Z,7.38
2023-05-24T19:39:42.952Z,11.88
2023-05-24T19:42:11.084Z,14.95
2023-05-24T19:44:38.053Z,10.60
2023-05-24T19:47:05.659Z,11.23
2023-05-24T19:49:32.618Z,8.05
2023-05-24T19:51:59.583Z,9.18
2023-05-24T19:54:26.793Z,9.85
2023-05-24T19:56:55.961Z,9.00
2023-05-24T19:59:22.913Z,8.93
2023-05-24T20:01:49.988Z,11.15
2023-05-24T20:04:17.051Z,9.90
2023-05-24T20:06:44.162Z,9.68
2023-05-24T20:09:11.570Z,10.20
2023-05-24T20:11:38.535Z,10.05
2023-05-24T20:14:05.564Z,9.93
2023-05-24T20:16:32.686Z,14.48
2023-05-24T20:18:59.680Z,12.75
2023-05-24T20:21:26.673Z,15.68
2023-05-24T20:23:58.168Z,9.48
2023-05-24T20:26:26.192Z,13.70
2023-05-24T20:28:53.324Z,10.77
2023-05-24T20:31:20.448Z,11.50
2023-05-24T20:33:49.096Z,11.55
2023-05-24T20:36:16.354Z,8.93
2023-05-24T20:38:43.356Z,11.32
2023-05-24T20:41:10.310Z,8.75
2023-05-24T20:43:37.523Z,13.50
2023-05-24T20:46:04.576Z,12.75
2023-05-24T20:48:31.584Z,15.02
2023-05-24T20:50:58.652Z,9.52
2023-05-24T20:53:26.071Z,15.68
2023-05-24T20:55:53.667Z,18.15
2023-05-24T20:58:20.866Z,15.27
2023-05-24T21:00:47.866Z,16.52
2023-05-24T21:03:14.988Z,14.20
2023-05-24T21:05:42.467Z,17.58
2023-05-24T21:08:09.554Z,17.40
2023-05-24T21:10:38.173Z,12.25
2023-05-24T21:13:05.706Z,11.57
2023-05-24T21:15:32.731Z,15.43
2023-05-24T21:18:00.157Z,14.55
2023-05-24T21:20:27.520Z,18.33
2023-05-24T21:22:54.635Z,13.35
2023-05-24T21:25:21.890Z,15.95
2023-05-24T21:27:49.139Z,16.20
2023-05-24T21:30:16.396Z,18.45
2023-05-24T21:32:43.578Z,12.05
2023-05-24T21:35:10.712Z,11.80
2023-05-24T21:37:37.921Z,11.95
2023-05-24T21:40:06.071Z,9.98
2023-05-24T21:42:33.228Z,14.00
2023-05-24T21:45:00.288Z,15.93
2023-05-24T21:47:27.323Z,8.90
2023-05-24T21:49:55.245Z,16.00
2023-05-24T21:52:23.330Z,13.60
2023-05-24T21:54:50.513Z,9.98
2023-05-24T21:57:17.498Z,16.40
2023-05-24T21:59:44.495Z,11.43
2023-05-24T22:02:11.665Z,11.27
2023-05-24T22:04:38.875Z,11.77
2023-05-24T22:07:06.694Z,18.13
2023-05-24T22:09:34.055Z,12.13
2023-05-24T22:12:01.988Z,13.90
2023-05-24T22:14:29.316Z,9.75
2023-05-24T22:16:56.498Z,22.02
2023-05-24T22:19:38.834Z,10.38
2023-05-24T22:22:08.410Z,11.10
2023-05-24T22:24:35.827Z,12.27
2023-05-24T22:27:03.287Z,12.82
2023-05-24T22:29:30.441Z,14.30
2023-05-24T22:31:57.748Z,13.75
2023-05-24T22:34:29.148Z,15.77
2023-05-24T22:36:57.761Z,14.52
2023-05-24T22:39:24.980Z,18.00
2023-05-24T22:41:52.790Z,18.35
2023-05-24T22:44:20.304Z,13.70
2023-05-24T22:46:53.719Z,16.90
2023-05-24T22:49:20.972Z,26.08
2023-05-24T22:51:50.445Z,18.80
2023-05-24T22:54:18.350Z,20.65
2023-05-24T22:56:46.750Z,21.23
2023-05-24T22:59:13.760Z,16.13
2023-05-24T23:01:40.945Z,24.25
2023-05-24T23:04:20.671Z,17.92
2023-05-24T23:06:52.943Z,17.67
2023-05-24T23:09:29.401Z,15.73
2023-05-24T23:11:58.585Z,20.95
2023-05-24T23:14:25.989Z,14.10
2023-05-24T23:16:53.125Z,22.33
2023-05-24T23:19:22.187Z,13.63
2023-05-24T23:21:52.393Z,17.80
2023-05-24T23:24:19.780Z,13.05
2023-05-24T23:26:46.795Z,19.20
2023-05-24T23:29:13.955Z,12.38
2023-05-24T23:31:41.051Z,18.73
2023-05-24T23:34:08.167Z,19.02
2023-05-24T23:36:35.216Z,17.65
2023-05-24T23:39:02.222Z,16.50
2023-05-24T23:41:29.192Z,19.58
2023-05-24T23:43:56.197Z,17.42
2023-05-24T23:46:23.737Z,16.98
2023-05-24T23:48:50.886Z,15.45
2023-05-24T23:51:19.586Z,18.25
2023-05-24T23:53:46.614Z,18.08
2023-05-24T23:56:13.612Z,23.40
2023-05-24T23:58:42.052Z,24.77
